Aérodrome :
LOGIN :

S'inscrire | Disclaimer

   EN    FR    IT 

 










Légende :    VFR   VFR Marginal   IFR   IFR Intensif   IFR Très Intensif
Visi : 
Plafond : 
>= 8 km
>= 3000ft
5 à 8 km
1000 à 3000 ft
1500m à 5 km
500 à 1000 ft
800 à 1500m
200 à 500 ft
< 800m
< 200 ft
Symboles :   Orages  Brouillard  Fortes neiges  Fortes précipitations  Vent > 20 kt
SIGMETs :   Divers  Orages  Givrage  Turbulence  Onde Orograph.  Cendres Volcan.






- Altitude de l'aérodrome : 202 ft
- Code IATA : LGW


EGKK - London Gatwick

DERNIER METAR :
  • 271950Z 26006KT CAVOK 03/M02 Q1012

METARs EXPIRÉS :
  • 271920Z 27006KT CAVOK 04/M03 Q1012
  • 271850Z 28007KT CAVOK 05/M03 Q1011
  • 271820Z 28007KT CAVOK 05/M03 Q1010
  • 271750Z 29008KT CAVOK 06/M03 Q1009
  • 271720Z 31013KT 9999 FEW048 07/M03 Q1009

TAF TAF EGKK
Valide du 27 à 18h jusqu'au 29 à 00h UTC


271706Z 2718/2824 30014KT 9999 FEW035
BECMG 2718/2721 23004KT
BECMG 2804/2807 17012KT BKN010
BECMG 2809/2812 17015G25KT
TEMPO 2810/2818 4000 RA BKN006
PROB40
TEMPO 2811/2818 RADZ BKN004
TEMPO 2821/2824 BKN012



MET'MAP, la Météo Aéronautique d'un coup d'oeil ! - Copyright ORBIFLY Décembre 2007 - Disclaimer

ORBIFLY MET'MAP TEAM :

Programmation & Développement : Alexandra Zaïnal
Sur une idée originale de : Baudouin d'Aumeries
Assistance à la programmation : Marc-Olivier Méhu
Soutien technique & logistique : Manuel Goepfert

Contact : metmap@orbifly.com




SOURCES & CREDITS :

   NOAA